Notice: A non well formed numeric value encountered in /services16/webpages/util/w/t/wt8r5xhl.myutilitysite.com/weatherstationew0157.net/public/weather28/wsFunctions.php on line 312

Warning: A non-numeric value encountered in /services16/webpages/util/w/t/wt8r5xhl.myutilitysite.com/weatherstationew0157.net/public/weather28/wsFunctions.php on line 312

Warning: A non-numeric value encountered in /services16/webpages/util/w/t/wt8r5xhl.myutilitysite.com/weatherstationew0157.net/public/weather28/wsFunctions.php on line 312

Warning: A non-numeric value encountered in /services16/webpages/util/w/t/wt8r5xhl.myutilitysite.com/weatherstationew0157.net/public/weather28/scriptsWL/tagsWL.php on line 167

Warning: A non-numeric value encountered in /services16/webpages/util/w/t/wt8r5xhl.myutilitysite.com/weatherstationew0157.net/public/weather28/scriptsWL/tagsWL.php on line 168

Notice: Undefined index: moonrise in /services16/webpages/util/w/t/wt8r5xhl.myutilitysite.com/weatherstationew0157.net/public/weather28/inc/astronomy.php on line 427

Notice: Undefined index: moonset in /services16/webpages/util/w/t/wt8r5xhl.myutilitysite.com/weatherstationew0157.net/public/weather28/inc/astronomy.php on line 428
Announcements

Announcements


NOTE: You can change the way the site looks for you by clicking the "Customize" button at the top of the menu and saving when you are done.


Weather Cam 1 more information Weather Cam 1


Visit our other weather sites:

Template documentation
and downloads

And another site


Nearby METAR Reports

   
KMMU - Bloomingdale, New Jersey 07403
Updated: Sep 18 2021 11:45 am
Mostly Cloudy  
Mostly Cloudy  
   Wind: NNW 9.2 mph
Wind: NNW 9.2 mph
Temperature: 78.8°F
Dew Point: 68°F
Humidity: 70%
Barometer: 30.07 inHg
Clouds: Mostly Cloudy
Visibility: 10 mi
Cloud details: Mostly Cloudy 823 m
KMMU 181545Z 34008KT 10SM BKN027 26/20 A3007
KTEB - Clifton, New Jersey 07014
Updated: Sep 18 2021 11:51 am
Mostly Cloudy  
Mostly Cloudy  
   Wind: Calm
Wind: Calm
Temperature: 78.8°F
Dew Point: 66.2°F
Humidity: 65%
Barometer: 30.04 inHg
Clouds: Mostly Cloudy
Visibility: 10 mi
Cloud details: Mostly Cloudy 884 m,
Mostly Cloudy 3658 m
KTEB 181551Z AUTO 00000KT 10SM BKN029 BKN120 26/19 A3004 RMK AO2 SLP173 T02560194
KFWN - Franklin, New Jersey 07416
Updated: Sep 18 2021 11:53 am
Mostly Cloudy  
Mostly Cloudy  
   Wind: varies 4.6 mph
Wind: varies 4.6 mph
Temperature: 78.8°F
Dew Point: 66.2°F
Humidity: 65%
Barometer: 30.09 inHg
Clouds: Mostly Cloudy
Visibility: 10 mi
Cloud details: Few Clouds 793 m,
Mostly Cloudy 1006 m
KFWN 181553Z AUTO VRB04KT 10SM FEW026 BKN033 26/19 A3009 RMK AO2 SLP187 T02560194
KFWN - Hamburg, New Jersey 07419
Updated: Sep 18 2021 11:53 am
Mostly Cloudy  
Mostly Cloudy  
   Wind: varies 4.6 mph
Wind: varies 4.6 mph
Temperature: 78.8°F
Dew Point: 66.2°F
Humidity: 65%
Barometer: 30.09 inHg
Clouds: Mostly Cloudy
Visibility: 10 mi
Cloud details: Few Clouds 793 m,
Mostly Cloudy 1006 m
KFWN 181553Z AUTO VRB04KT 10SM FEW026 BKN033 26/19 A3009 RMK AO2 SLP187 T02560194
KFWN - Highland Lakes, New Jersey 07422
Updated: Sep 18 2021 11:53 am
Mostly Cloudy  
Mostly Cloudy  
   Wind: varies 4.6 mph
Wind: varies 4.6 mph
Temperature: 78.8°F
Dew Point: 66.2°F
Humidity: 65%
Barometer: 30.09 inHg
Clouds: Mostly Cloudy
Visibility: 10 mi
Cloud details: Few Clouds 793 m,
Mostly Cloudy 1006 m
KFWN 181553Z AUTO VRB04KT 10SM FEW026 BKN033 26/19 A3009 RMK AO2 SLP187 T02560194
KMMU - Hopatcong,New Jersey 07849
Updated: Sep 18 2021 11:45 am
Mostly Cloudy  
Mostly Cloudy  
   Wind: NNW 9.2 mph
Wind: NNW 9.2 mph
Temperature: 78.8°F
Dew Point: 68°F
Humidity: 70%
Barometer: 30.07 inHg
Clouds: Mostly Cloudy
Visibility: 10 mi
Cloud details: Mostly Cloudy 823 m
KMMU 181545Z 34008KT 10SM BKN027 26/20 A3007
KFWN - Jefferson, New Jersey 07438
Updated: Sep 18 2021 11:53 am
Mostly Cloudy  
Mostly Cloudy  
   Wind: varies 4.6 mph
Wind: varies 4.6 mph
Temperature: 78.8°F
Dew Point: 66.2°F
Humidity: 65%
Barometer: 30.09 inHg
Clouds: Mostly Cloudy
Visibility: 10 mi
Cloud details: Few Clouds 793 m,
Mostly Cloudy 1006 m
KFWN 181553Z AUTO VRB04KT 10SM FEW026 BKN033 26/19 A3009 RMK AO2 SLP187 T02560194
KLDJ - Keansburg, New Jersey 07734
Updated: Sep 18 2021 11:55 am
Overcast  
Overcast  
   Wind: NNW 9.2 mph
Wind: NNW 9.2 mph
Temperature: 80.6°F
Heat Index: 82.4°F
Dew Point: 64.4°F
Humidity: 58%
Barometer: 30.06 inHg
Clouds: Overcast
Visibility: 10 mi
Cloud details: Mostly Cloudy 975 m,
Overcast 3658 m
KLDJ 181555Z AUTO 33008KT 10SM BKN032 OVC120 27/18 A3006 RMK AO2 T02720182
KMJX - Lavallette, New Jersey 08735
Updated: Sep 18 2021 11:56 am
Mostly Cloudy  
Mostly Cloudy  
   Wind: NW 8.1 mph
Wind: NW 8.1 mph
Temperature: 78.8°F
Dew Point: 69.8°F
Humidity: 74%
Barometer: 30.08 inHg
Clouds: Mostly Cloudy
Visibility: 10 mi
Cloud details: Mostly Cloudy 671 m,
Mostly Cloudy 914 m
KMJX 181556Z AUTO 32007KT 10SM BKN022 BKN030 26/21 A3008 RMK AO2 SLP188 T02610206
KTEB - Little Ferry, New Jersey 07643
Updated: Sep 18 2021 11:51 am
Mostly Cloudy  
Mostly Cloudy  
   Wind: Calm
Wind: Calm
Temperature: 78.8°F
Dew Point: 66.2°F
Humidity: 65%
Barometer: 30.04 inHg
Clouds: Mostly Cloudy
Visibility: 10 mi
Cloud details: Mostly Cloudy 884 m,
Mostly Cloudy 3658 m
KTEB 181551Z AUTO 00000KT 10SM BKN029 BKN120 26/19 A3004 RMK AO2 SLP173 T02560194
KTEB - Spring Valley, NY 10977
Updated: Sep 18 2021 11:51 am
Mostly Cloudy  
Mostly Cloudy  
   Wind: Calm
Wind: Calm
Temperature: 78.8°F
Dew Point: 66.2°F
Humidity: 65%
Barometer: 30.04 inHg
Clouds: Mostly Cloudy
Visibility: 10 mi
Cloud details: Mostly Cloudy 884 m,
Mostly Cloudy 3658 m
KTEB 181551Z AUTO 00000KT 10SM BKN029 BKN120 26/19 A3004 RMK AO2 SLP173 T02560194
KEWR - Newark, New Jersey 07104
Updated: Sep 18 2021 11:51 am
Mostly Cloudy  
Mostly Cloudy  
   Wind: NNW 8.1 mph
Wind: NNW 8.1 mph
Temperature: 82.4°F
Heat Index: 84.2°F
Dew Point: 66.2°F
Humidity: 58%
Barometer: 30.05 inHg
Clouds: Mostly Cloudy
Visibility: 10 mi
Cloud details: Partly Cloudy 884 m,
Mostly Cloudy 3658 m
KEWR 181551Z 34007KT 10SM SCT029 BKN120 28/19 A3005 RMK AO2 SLP175 T02780189 $
KMMU - Newfoundland, New Jersey 07435
Updated: Sep 18 2021 11:45 am
Mostly Cloudy  
Mostly Cloudy  
   Wind: NNW 9.2 mph
Wind: NNW 9.2 mph
Temperature: 78.8°F
Dew Point: 68°F
Humidity: 70%
Barometer: 30.07 inHg
Clouds: Mostly Cloudy
Visibility: 10 mi
Cloud details: Mostly Cloudy 823 m
KMMU 181545Z 34008KT 10SM BKN027 26/20 A3007
KLGA - Yonkers, New York 10710
Updated: Sep 18 2021 11:51 am
Mostly Cloudy  
Mostly Cloudy  
   Wind: Calm
Wind: Calm
Temperature: 80.6°F
Heat Index: 82.4°F
Dew Point: 66.2°F
Humidity: 62%
Barometer: 30.05 inHg
Clouds: Mostly Cloudy
Visibility: 10 mi
Cloud details: Partly Cloudy 549 m,
Partly Cloudy 2134 m,
Mostly Cloudy 3658 m
KLGA 181551Z 00000KT 10SM SCT018 SCT070 BKN120 27/19 A3005 RMK AO2 SLP174 T02670189
 

Script developed by  Saratoga-weather.org Adapted for the template by  Weerstation Leuven

You find our weather info also at:

Weather Underground

Citizen Weather Observer Program (CWOP)

Equipment we use:

Weather-station
Davis Vantage Pro2

Weather-program
WeatherLink

Weather-server
DELL Optiplex 7020 Mini-Tower

Provider
Deluxe

Davis Vantage Pro2

WeatherLink

DELL Optiplex 7020 Mini-Tower

Deluxe

Weather Station EW0157 Visitors
Weather Station EW0157 Visitors